createdAt,value
2016-08-04T00:00:32.649Z,15.75
2016-08-04T00:01:32.632Z,15.77
2016-08-04T00:02:32.709Z,15.83
2016-08-04T00:03:32.605Z,15.84
2016-08-04T00:04:32.605Z,15.84
2016-08-04T00:05:32.595Z,15.89
2016-08-04T00:06:32.682Z,15.92
2016-08-04T00:07:32.627Z,15.8
2016-08-04T00:08:32.624Z,15.92
2016-08-04T00:09:32.581Z,15.84
2016-08-04T00:10:32.591Z,15.84
2016-08-04T00:11:32.589Z,15.92
2016-08-04T00:12:32.596Z,15.93
2016-08-04T00:13:32.589Z,15.89
2016-08-04T00:14:32.642Z,15.81
2016-08-04T00:15:32.648Z,15.86
2016-08-04T00:16:32.573Z,15.84
2016-08-04T00:17:32.620Z,15.78
2016-08-04T00:18:32.557Z,15.83
2016-08-04T00:20:32.557Z,15.84
2016-08-04T00:21:32.594Z,15.86
2016-08-04T00:22:32.661Z,15.84
2016-08-04T00:23:32.551Z,15.92
2016-08-04T00:24:32.549Z,15.83
2016-08-04T00:25:32.552Z,15.88
2016-08-04T00:26:32.560Z,15.91
2016-08-04T00:27:32.544Z,15.86
2016-08-04T00:28:32.517Z,15.89
2016-08-04T00:29:32.562Z,15.89
2016-08-04T00:30:32.514Z,15.88
2016-08-04T00:31:33.319Z,15.84
2016-08-04T00:32:33.269Z,15.92
2016-08-04T00:33:32.535Z,15.92
2016-08-04T00:35:32.501Z,15.84
2016-08-04T00:36:32.523Z,15.96
2016-08-04T00:37:32.575Z,15.91
2016-08-04T00:38:32.498Z,15.84
2016-08-04T00:39:32.529Z,15.81
2016-08-04T00:40:32.481Z,15.95
2016-08-04T00:41:32.601Z,15.93
2016-08-04T00:42:32.510Z,15.91
2016-08-04T00:43:32.551Z,15.98
2016-08-04T00:44:32.478Z,15.96
2016-08-04T00:45:32.456Z,15.96
2016-08-04T00:46:32.469Z,15.95
2016-08-04T00:47:32.476Z,16.02
2016-08-04T00:48:32.459Z,15.89
2016-08-04T00:50:32.513Z,16.06
2016-08-04T00:51:32.461Z,16.06
2016-08-04T00:52:32.451Z,16.08
2016-08-04T00:53:32.445Z,16.04
2016-08-04T00:54:32.458Z,16.02
2016-08-04T00:55:32.436Z,16.08
2016-08-04T00:56:32.417Z,16.08
2016-08-04T00:57:32.429Z,16.14
2016-08-04T00:58:32.424Z,16.16
2016-08-04T00:59:32.435Z,16.16
2016-08-04T01:00:32.422Z,16.22
2016-08-04T01:01:32.421Z,16.18
2016-08-04T01:02:32.444Z,16.21
2016-08-04T01:03:32.422Z,16.27
2016-08-04T01:04:32.396Z,16.13
2016-08-04T01:05:32.834Z,16.33
2016-08-04T01:06:32.385Z,16.25
2016-08-04T01:07:32.493Z,16.29
2016-08-04T01:08:33.115Z,16.27
2016-08-04T01:09:32.380Z,16.27
2016-08-04T01:10:32.410Z,16.16
2016-08-04T01:11:32.394Z,16.25
2016-08-04T01:12:32.373Z,16.22
2016-08-04T01:13:32.386Z,16.29
2016-08-04T01:14:32.368Z,16.32
2016-08-04T01:15:32.409Z,16.25
2016-08-04T01:16:32.356Z,16.21
2016-08-04T01:17:32.382Z,16.3
2016-08-04T01:18:33.116Z,16.26
2016-08-04T01:19:32.374Z,16.33
2016-08-04T01:20:32.357Z,16.33
2016-08-04T01:21:32.351Z,16.34
2016-08-04T01:22:32.348Z,16.26
2016-08-04T01:23:32.388Z,16.33
2016-08-04T01:24:32.354Z,16.32
2016-08-04T01:25:32.346Z,16.34
2016-08-04T01:26:32.327Z,16.32
2016-08-04T01:27:32.335Z,16.33
2016-08-04T01:28:32.333Z,16.44
2016-08-04T01:29:32.329Z,16.44
2016-08-04T01:30:32.327Z,16.44
2016-08-04T01:31:32.333Z,16.47
2016-08-04T01:32:32.331Z,16.52
2016-08-04T01:33:32.365Z,16.51
2016-08-04T01:34:32.312Z,16.49
2016-08-04T01:35:32.297Z,16.49
2016-08-04T01:36:32.290Z,16.45
2016-08-04T01:37:32.315Z,16.48
2016-08-04T01:38:32.313Z,16.4
2016-08-04T01:39:32.300Z,16.44
2016-08-04T01:40:32.291Z,16.4
2016-08-04T01:41:32.355Z,16.34
2016-08-04T01:42:32.294Z,16.37
2016-08-04T01:43:32.314Z,16.34
2016-08-04T01:44:32.280Z,16.36
2016-08-04T01:45:32.264Z,16.33
2016-08-04T01:46:32.273Z,16.34
2016-08-04T01:47:32.270Z,16.34
2016-08-04T01:48:32.270Z,16.29
2016-08-04T01:49:32.260Z,16.27
2016-08-04T01:50:32.281Z,16.3
2016-08-04T01:51:32.277Z,16.39
2016-08-04T01:52:32.254Z,16.44
2016-08-04T01:53:32.273Z,16.29
2016-08-04T01:54:32.288Z,16.34
2016-08-04T01:55:32.276Z,16.36
2016-08-04T01:56:32.994Z,16.4
2016-08-04T01:57:32.244Z,16.45
2016-08-04T01:58:32.271Z,16.52
2016-08-04T01:59:32.255Z,16.45
2016-08-04T02:00:32.236Z,16.51
2016-08-04T02:01:32.221Z,16.55
2016-08-04T02:02:32.217Z,16.4
2016-08-04T02:03:32.299Z,16.4
2016-08-04T02:04:32.213Z,16.4
2016-08-04T02:05:32.295Z,16.37
2016-08-04T02:06:32.212Z,16.3
2016-08-04T02:07:32.212Z,16.27
2016-08-04T02:08:32.200Z,16.32
2016-08-04T02:09:32.214Z,16.29
2016-08-04T02:10:32.219Z,16.18
2016-08-04T02:11:32.206Z,16.25
2016-08-04T02:12:32.216Z,16.22
2016-08-04T02:13:32.195Z,16.13
2016-08-04T02:14:32.197Z,16.16
2016-08-04T02:15:32.201Z,16.21
2016-08-04T02:16:32.191Z,16.02
2016-08-04T02:17:32.199Z,16.06
2016-08-04T02:18:32.174Z,16.06
2016-08-04T02:19:32.176Z,16.06
2016-08-04T02:20:32.186Z,16.04
2016-08-04T02:21:32.161Z,16.06
2016-08-04T02:22:32.187Z,16.04
2016-08-04T02:23:32.174Z,16.08
2016-08-04T02:24:32.167Z,16.06
2016-08-04T02:25:32.153Z,16.04
2016-08-04T02:26:32.203Z,16.02
2016-08-04T02:27:32.205Z,16.02
2016-08-04T02:28:32.143Z,16.08
2016-08-04T02:29:32.152Z,16.07
2016-08-04T02:30:32.144Z,15.99
2016-08-04T02:31:32.159Z,15.99
2016-08-04T02:32:32.175Z,15.95
2016-08-04T02:33:32.136Z,15.98
2016-08-04T02:34:32.132Z,15.99
2016-08-04T02:35:32.129Z,15.86
2016-08-04T02:36:32.124Z,15.95
2016-08-04T02:37:32.217Z,15.96
2016-08-04T02:38:32.154Z,15.88
2016-08-04T02:39:32.146Z,16
2016-08-04T02:40:32.125Z,15.93
2016-08-04T02:41:32.875Z,15.93
2016-08-04T02:42:32.136Z,15.92
2016-08-04T02:43:32.154Z,15.96
2016-08-04T02:44:32.120Z,16.04
2016-08-04T02:45:32.095Z,16.02
2016-08-04T02:46:32.100Z,16.08
2016-08-04T02:47:32.867Z,16.07
2016-08-04T02:48:32.101Z,16.07
2016-08-04T02:49:32.093Z,16.07
2016-08-04T02:50:32.102Z,16.25
2016-08-04T02:51:32.105Z,16.16
2016-08-04T02:52:32.104Z,16.25
2016-08-04T02:53:32.075Z,16.17
2016-08-04T02:54:32.110Z,16.18
2016-08-04T02:55:32.810Z,16.21
2016-08-04T02:56:32.107Z,16.16
2016-08-04T02:57:32.097Z,16.22
2016-08-04T02:58:32.051Z,16.25
2016-08-04T02:59:32.090Z,16.22
2016-08-04T03:00:32.074Z,16.14
2016-08-04T03:01:32.044Z,16.21
2016-08-04T03:02:32.064Z,16.17
2016-08-04T03:03:32.033Z,16.14
2016-08-04T03:04:32.034Z,16.17
2016-08-04T03:06:32.070Z,16.11
2016-08-04T03:07:32.022Z,16.1
2016-08-04T03:08:32.045Z,16.16
2016-08-04T03:09:32.035Z,16.13
2016-08-04T03:10:32.043Z,16.08
2016-08-04T03:11:32.009Z,16.02
2016-08-04T03:12:32.052Z,16.04
2016-08-04T03:13:32.047Z,16.08
2016-08-04T03:14:32.030Z,16.07
2016-08-04T03:15:32.054Z,16.07
2016-08-04T03:16:32.003Z,16.08
2016-08-04T03:17:32.003Z,16.11
2016-08-04T03:18:32.007Z,16.18
2016-08-04T03:19:32.013Z,16.1
2016-08-04T03:20:32.040Z,16.13
2016-08-04T03:21:31.975Z,16.18
2016-08-04T03:22:31.981Z,16.18
2016-08-04T03:23:32.000Z,16.22
2016-08-04T03:24:32.695Z,16.21
2016-08-04T03:25:31.979Z,16.22
2016-08-04T03:26:32.117Z,16.25
2016-08-04T03:27:31.971Z,16.25
2016-08-04T03:28:31.971Z,16.27
2016-08-04T03:29:32.933Z,16.11
2016-08-04T03:30:31.964Z,16.34
2016-08-04T03:31:31.957Z,16.33
2016-08-04T03:32:31.974Z,16.36
2016-08-04T03:33:31.955Z,16.34
2016-08-04T03:34:32.081Z,16.33
2016-08-04T03:35:32.029Z,16.4
2016-08-04T03:36:32.048Z,16.48
2016-08-04T03:37:32.007Z,16.45
2016-08-04T03:38:31.935Z,16.51
2016-08-04T03:39:31.935Z,16.62
2016-08-04T03:40:31.929Z,16.62
2016-08-04T03:41:31.943Z,16.59
2016-08-04T03:42:31.928Z,16.59
2016-08-04T03:43:31.929Z,16.59
2016-08-04T03:44:32.635Z,16.57
2016-08-04T03:45:31.915Z,16.63
2016-08-04T03:46:31.905Z,16.66
2016-08-04T03:47:31.918Z,16.67
2016-08-04T03:48:31.915Z,16.69
2016-08-04T03:49:31.913Z,16.67
2016-08-04T03:51:31.917Z,16.7
2016-08-04T03:52:31.892Z,16.77
2016-08-04T03:53:31.896Z,16.73
2016-08-04T03:54:31.935Z,16.82
2016-08-04T03:55:31.969Z,16.88
2016-08-04T03:56:31.886Z,16.88
2016-08-04T03:57:31.885Z,16.94
2016-08-04T03:58:31.891Z,16.85
2016-08-04T03:59:31.873Z,16.94
2016-08-04T04:00:31.933Z,16.95
2016-08-04T04:01:31.890Z,16.95
2016-08-04T04:02:31.893Z,17
2016-08-04T04:03:31.909Z,16.97
2016-08-04T04:04:32.603Z,16.92
2016-08-04T04:05:31.860Z,16.95
2016-08-04T04:06:31.853Z,16.94
2016-08-04T04:07:31.877Z,16.92
2016-08-04T04:08:31.840Z,16.99
2016-08-04T04:09:31.881Z,16.95
2016-08-04T04:10:31.837Z,17.03
2016-08-04T04:11:31.845Z,17.05
2016-08-04T04:12:31.826Z,17.03
2016-08-04T04:13:31.859Z,17.03
2016-08-04T04:14:31.816Z,17.06
2016-08-04T04:15:31.859Z,17.09
2016-08-04T04:16:31.839Z,17.15
2016-08-04T04:17:31.819Z,17.17
2016-08-04T04:18:31.821Z,17.13
2016-08-04T04:19:31.820Z,17.25
2016-08-04T04:21:31.814Z,17.36
2016-08-04T04:22:32.523Z,17.38
2016-08-04T04:23:31.861Z,17.43
2016-08-04T04:24:31.884Z,17.39
2016-08-04T04:25:31.795Z,17.3
2016-08-04T04:26:31.858Z,17.32
2016-08-04T04:27:31.794Z,17.36
2016-08-04T04:28:31.853Z,17.39
2016-08-04T04:29:31.796Z,17.49
2016-08-04T04:30:31.817Z,17.49
2016-08-04T04:31:31.781Z,17.49
2016-08-04T04:32:31.828Z,17.54
2016-08-04T04:33:31.801Z,17.54
2016-08-04T04:34:31.825Z,17.57
2016-08-04T04:36:31.774Z,17.66
2016-08-04T04:37:31.779Z,17.68
2016-08-04T04:38:31.778Z,17.65
2016-08-04T04:39:31.792Z,17.68
2016-08-04T04:40:31.755Z,17.76
2016-08-04T04:41:31.758Z,17.76
2016-08-04T04:42:31.759Z,17.8
2016-08-04T04:43:31.768Z,17.83
2016-08-04T04:44:31.795Z,17.84
2016-08-04T04:45:31.763Z,17.87
2016-08-04T04:46:31.782Z,17.88
2016-08-04T04:47:31.774Z,18.01
2016-08-04T04:48:31.775Z,17.99
2016-08-04T04:49:31.798Z,17.88
2016-08-04T04:50:31.840Z,18.01
2016-08-04T04:51:31.763Z,18.03
2016-08-04T04:52:31.739Z,18.01
2016-08-04T04:53:31.765Z,18.11
2016-08-04T04:54:31.731Z,18.11
2016-08-04T04:55:31.746Z,18.06
2016-08-04T04:56:31.729Z,18.03
2016-08-04T04:57:31.719Z,18.17
2016-08-04T04:58:31.737Z,18.2
2016-08-04T04:59:31.744Z,18.2
2016-08-04T05:00:31.724Z,18.23
2016-08-04T05:01:31.741Z,18.26
2016-08-04T05:02:31.719Z,18.2
2016-08-04T05:03:31.740Z,18.34
2016-08-04T05:04:31.745Z,18.34
2016-08-04T05:05:31.724Z,18.27
2016-08-04T05:06:31.733Z,18.32
2016-08-04T05:07:31.713Z,18.32
2016-08-04T05:08:31.767Z,18.27
2016-08-04T05:09:31.731Z,18.34
2016-08-04T05:10:31.729Z,18.31
2016-08-04T05:11:31.726Z,18.34
2016-08-04T05:12:31.783Z,18.31
2016-08-04T05:13:31.742Z,18.29
2016-08-04T05:14:31.721Z,18.26
2016-08-04T05:15:31.689Z,18.26
2016-08-04T05:16:31.693Z,18.34
2016-08-04T05:17:31.723Z,18.31
2016-08-04T05:18:31.688Z,18.34
2016-08-04T05:19:31.705Z,18.32
2016-08-04T05:20:31.699Z,18.39
2016-08-04T05:21:31.775Z,18.39
2016-08-04T05:22:31.723Z,18.42
2016-08-04T05:23:31.708Z,18.42
2016-08-04T05:24:31.681Z,18.42
2016-08-04T05:25:31.702Z,18.45
2016-08-04T05:26:31.719Z,18.54
2016-08-04T05:27:31.663Z,18.51
2016-08-04T05:28:31.734Z,18.54
2016-08-04T05:29:31.696Z,18.51
2016-08-04T05:30:31.693Z,18.51
2016-08-04T05:31:31.677Z,18.54
2016-08-04T05:32:31.767Z,18.53
2016-08-04T05:33:31.698Z,18.54
2016-08-04T05:34:31.662Z,18.57
2016-08-04T05:35:31.674Z,18.49
2016-08-04T05:36:31.670Z,18.5
2016-08-04T05:37:31.680Z,18.53
2016-08-04T05:38:31.680Z,18.5
2016-08-04T05:39:31.667Z,18.53
2016-08-04T05:40:31.654Z,18.53
2016-08-04T05:41:32.398Z,18.53
2016-08-04T05:42:31.649Z,18.54
2016-08-04T05:43:31.656Z,18.56
2016-08-04T05:44:31.657Z,18.51
2016-08-04T05:45:31.668Z,18.53
2016-08-04T05:46:31.677Z,18.68
2016-08-04T05:47:31.663Z,18.59
2016-08-04T05:48:31.712Z,18.61
2016-08-04T05:49:31.653Z,18.71
2016-08-04T05:50:31.722Z,18.76
2016-08-04T05:51:31.641Z,18.79
2016-08-04T05:52:31.651Z,18.89
2016-08-04T05:53:31.664Z,18.9
2016-08-04T05:54:31.635Z,18.93
2016-08-04T05:55:31.632Z,18.99
2016-08-04T05:56:31.657Z,18.96
2016-08-04T05:57:31.725Z,19.07
2016-08-04T05:58:31.659Z,19.07
2016-08-04T05:59:31.637Z,19.19
2016-08-04T06:00:31.647Z,19.23
2016-08-04T06:01:31.640Z,19.2
2016-08-04T06:02:31.680Z,19.19
2016-08-04T06:03:31.668Z,19.23
2016-08-04T06:04:31.638Z,19.24
2016-08-04T06:05:32.475Z,19.32
2016-08-04T06:06:31.640Z,19.28
2016-08-04T06:07:31.630Z,19.35
2016-08-04T06:08:31.629Z,19.38
2016-08-04T06:09:31.632Z,19.47
2016-08-04T06:10:31.627Z,19.55
2016-08-04T06:11:31.675Z,19.6
2016-08-04T06:12:31.702Z,19.67
2016-08-04T06:13:31.611Z,19.49
2016-08-04T06:14:31.743Z,19.6
2016-08-04T06:15:31.749Z,19.64
2016-08-04T06:16:31.692Z,19.63
2016-08-04T06:17:31.675Z,19.7
2016-08-04T06:18:31.989Z,19.83
2016-08-04T06:19:32.440Z,19.87
2016-08-04T06:20:31.725Z,19.83
2016-08-04T06:21:31.858Z,20.05
2016-08-04T06:22:31.846Z,20.11
2016-08-04T06:23:31.787Z,20.27
2016-08-04T06:24:31.697Z,20.41
2016-08-04T06:25:32.682Z,20.48
2016-08-04T06:26:32.840Z,20.46
2016-08-04T06:27:31.977Z,20.53
2016-08-04T06:28:32.455Z,20.68
2016-08-04T06:29:31.652Z,20.67
2016-08-04T06:30:31.691Z,20.74
2016-08-04T06:31:31.675Z,20.76
2016-08-04T06:32:31.645Z,20.78
2016-08-04T06:33:31.622Z,20.79
2016-08-04T06:34:31.637Z,20.86
2016-08-04T06:35:31.724Z,20.93
2016-08-04T06:36:31.631Z,20.97
2016-08-04T06:37:31.665Z,21.03
2016-08-04T06:38:31.621Z,21.01
2016-08-04T06:39:31.754Z,21
2016-08-04T06:40:31.631Z,20.91
2016-08-04T06:41:31.668Z,20.9
2016-08-04T06:42:32.725Z,20.91
2016-08-04T06:43:31.714Z,20.91
2016-08-04T06:44:31.687Z,20.88
2016-08-04T06:45:31.616Z,20.97
2016-08-04T06:46:31.818Z,21
2016-08-04T06:47:31.648Z,21.13
2016-08-04T06:48:31.622Z,21.09
2016-08-04T06:49:31.700Z,21.15
2016-08-04T06:50:31.647Z,21.08
2016-08-04T06:51:31.689Z,21.04
2016-08-04T06:52:31.660Z,21.11
2016-08-04T06:53:31.699Z,21.15
2016-08-04T06:54:31.725Z,21.11
2016-08-04T06:55:31.860Z,21.15
2016-08-04T06:56:32.482Z,21.19
2016-08-04T06:57:31.658Z,21.03
2016-08-04T06:58:31.636Z,21.03
2016-08-04T06:59:32.442Z,21
2016-08-04T07:00:32.072Z,20.97
2016-08-04T07:01:31.627Z,21.08
2016-08-04T07:02:31.733Z,21.08
2016-08-04T07:03:31.631Z,20.98
2016-08-04T07:04:31.637Z,21.03
2016-08-04T07:05:31.671Z,21.04
2016-08-04T07:06:31.968Z,21.13
2016-08-04T07:07:31.703Z,21.11
2016-08-04T07:08:31.642Z,21.19
2016-08-04T07:09:31.660Z,21.3
2016-08-04T07:10:31.645Z,21.22
2016-08-04T07:11:31.705Z,21.28
2016-08-04T07:12:31.678Z,21.21
2016-08-04T07:13:31.670Z,21.33
2016-08-04T07:14:31.645Z,21.38
2016-08-04T07:15:31.657Z,21.53
2016-08-04T07:16:31.660Z,21.62
2016-08-04T07:17:31.643Z,21.76
2016-08-04T07:18:31.645Z,21.9
2016-08-04T07:19:31.638Z,21.97
2016-08-04T07:20:31.639Z,22.07
2016-08-04T07:21:31.677Z,22
2016-08-04T07:22:31.652Z,22.18
2016-08-04T07:23:31.661Z,22.23
2016-08-04T07:24:31.657Z,22.22
2016-08-04T07:25:31.678Z,22.14
2016-08-04T07:26:31.690Z,22.15
2016-08-04T07:27:31.641Z,22.26
2016-08-04T07:28:31.702Z,22.3
2016-08-04T07:29:31.644Z,22.45
2016-08-04T07:30:31.653Z,22.66
2016-08-04T07:31:31.647Z,22.96
2016-08-04T07:32:31.662Z,23.21
2016-08-04T07:33:31.657Z,23.55
2016-08-04T07:34:31.665Z,23.64
2016-08-04T07:35:31.639Z,23.97
2016-08-04T07:36:31.935Z,24.29
2016-08-04T07:37:31.658Z,24.63
2016-08-04T07:38:31.685Z,24.87
2016-08-04T07:39:31.659Z,25.07
2016-08-04T07:40:31.703Z,25.24
2016-08-04T07:41:31.658Z,25.44
2016-08-04T07:42:31.736Z,25.54
2016-08-04T07:43:31.684Z,25.74
2016-08-04T07:44:31.701Z,25.94
2016-08-04T07:45:31.669Z,26.31
2016-08-04T07:46:31.693Z,26.57
2016-08-04T07:47:31.704Z,26.84
2016-08-04T07:48:31.684Z,27
2016-08-04T07:49:31.696Z,27.28
2016-08-04T07:50:31.697Z,27.46
2016-08-04T07:51:31.717Z,27.69
2016-08-04T07:52:31.694Z,27.99
2016-08-04T07:53:31.698Z,28.21
2016-08-04T07:54:31.713Z,28.39
2016-08-04T07:55:31.729Z,28.85
2016-08-04T07:56:31.701Z,29.32
2016-08-04T07:57:31.712Z,29.84
2016-08-04T07:58:31.785Z,30.37
2016-08-04T07:59:31.725Z,30.78
2016-08-04T08:00:32.704Z,31.22
2016-08-04T08:01:31.727Z,31.53
2016-08-04T08:02:31.735Z,31.82
2016-08-04T08:03:31.744Z,32.03
2016-08-04T08:04:31.747Z,32.06
2016-08-04T08:05:31.797Z,31.91
2016-08-04T08:06:31.782Z,31.81
2016-08-04T08:07:31.773Z,31.81
2016-08-04T08:08:31.768Z,31.78
2016-08-04T08:09:32.484Z,31.62
2016-08-04T08:10:31.772Z,31.5
2016-08-04T08:11:31.780Z,31.36
2016-08-04T08:12:31.769Z,30.96
2016-08-04T08:13:31.785Z,30.59
2016-08-04T08:14:31.813Z,30.37
2016-08-04T08:15:31.814Z,29.98
2016-08-04T08:16:32.532Z,29.65
2016-08-04T08:17:31.803Z,29.32
2016-08-04T08:18:31.808Z,28.83
2016-08-04T08:19:31.813Z,28.45
2016-08-04T08:20:31.814Z,28.18
2016-08-04T08:22:31.815Z,27.61
2016-08-04T08:23:31.838Z,27.34
2016-08-04T08:24:31.824Z,27.13
2016-08-04T08:25:31.854Z,27.04
2016-08-04T08:26:31.890Z,26.91
2016-08-04T08:27:31.859Z,26.82
2016-08-04T08:28:31.922Z,26.57
2016-08-04T08:29:31.864Z,26.54
2016-08-04T08:30:31.856Z,26.31
2016-08-04T08:31:31.869Z,26.3
2016-08-04T08:32:31.882Z,26.19
2016-08-04T08:33:31.875Z,26.04
2016-08-04T08:34:31.879Z,25.96
2016-08-04T08:35:31.888Z,26.03
2016-08-04T08:37:32.598Z,25.86
2016-08-04T08:38:31.895Z,25.97
2016-08-04T08:39:31.892Z,26.03
2016-08-04T08:40:31.945Z,26.22
2016-08-04T08:41:31.928Z,26.2
2016-08-04T08:42:31.961Z,26.23
2016-08-04T08:43:31.919Z,26.19
2016-08-04T08:44:31.933Z,26.12
2016-08-04T08:45:31.931Z,26.27
2016-08-04T08:46:31.937Z,26.31
2016-08-04T08:47:31.945Z,26.31
2016-08-04T08:48:31.940Z,26.34
2016-08-04T08:49:32.037Z,26.5
2016-08-04T08:50:31.949Z,26.53
2016-08-04T08:51:31.995Z,26.44
2016-08-04T08:52:31.960Z,26.31
2016-08-04T08:53:31.978Z,26.09
2016-08-04T08:54:32.177Z,25.91
2016-08-04T08:55:31.978Z,25.76
2016-08-04T08:56:31.985Z,25.67
2016-08-04T08:57:31.979Z,25.66
2016-08-04T08:58:31.982Z,25.51
2016-08-04T08:59:32.005Z,25.42
2016-08-04T09:00:32.003Z,25.33
2016-08-04T09:01:31.991Z,25.39
2016-08-04T09:02:32.012Z,25.2
2016-08-04T09:03:31.998Z,25.23
2016-08-04T09:04:31.998Z,25.14
2016-08-04T09:05:32.008Z,25.04
2016-08-04T09:07:32.030Z,24.89
2016-08-04T09:08:32.008Z,24.85
2016-08-04T09:09:32.023Z,24.82
2016-08-04T09:10:32.090Z,24.89
2016-08-04T09:11:32.041Z,24.87
2016-08-04T09:12:32.045Z,24.94
2016-08-04T09:13:32.049Z,25.05
2016-08-04T09:14:32.063Z,24.94
2016-08-04T09:15:32.112Z,25.11
2016-08-04T09:16:32.069Z,25.12
2016-08-04T09:17:32.061Z,25.15
2016-08-04T09:18:32.070Z,25.15
2016-08-04T09:19:32.070Z,25.14
2016-08-04T09:20:32.082Z,25.22
2016-08-04T09:21:32.073Z,25.37
2016-08-04T09:22:32.098Z,25.33
2016-08-04T09:23:32.095Z,25.3
2016-08-04T09:24:32.088Z,25.41
2016-08-04T09:25:32.087Z,25.39
2016-08-04T09:26:32.081Z,25.47
2016-08-04T09:27:32.108Z,25.48
2016-08-04T09:28:32.101Z,25.45
2016-08-04T09:29:32.098Z,25.47
2016-08-04T09:30:32.808Z,25.56
2016-08-04T09:31:32.119Z,25.69
2016-08-04T09:32:32.100Z,25.78
2016-08-04T09:33:32.119Z,25.93
2016-08-04T09:34:32.114Z,26.03
2016-08-04T09:35:32.130Z,26.12
2016-08-04T09:36:32.194Z,26.11
2016-08-04T09:37:32.149Z,26.01
2016-08-04T09:38:32.147Z,26.04
2016-08-04T09:39:32.136Z,25.97
2016-08-04T09:40:32.153Z,25.85
2016-08-04T09:41:32.146Z,25.71
2016-08-04T09:42:32.204Z,25.57
2016-08-04T09:43:32.173Z,25.56
2016-08-04T09:44:32.164Z,25.3
2016-08-04T09:45:32.897Z,25.26
2016-08-04T09:46:32.172Z,25.23
2016-08-04T09:47:32.182Z,25.07
2016-08-04T09:48:32.211Z,25.17
2016-08-04T09:49:32.189Z,25.08
2016-08-04T09:50:32.188Z,25.12
2016-08-04T09:51:32.180Z,25.07
2016-08-04T09:52:32.196Z,25.04
2016-08-04T09:53:32.194Z,25.02
2016-08-04T09:54:32.207Z,25.07
2016-08-04T09:55:32.206Z,25.05
2016-08-04T09:56:32.202Z,25.05
2016-08-04T09:57:32.209Z,24.97
2016-08-04T09:58:32.211Z,24.93
2016-08-04T09:59:32.215Z,25.05
2016-08-04T10:00:32.221Z,25.08
2016-08-04T10:01:32.224Z,24.93
2016-08-04T10:02:32.223Z,25.04
2016-08-04T10:03:32.236Z,25.05
2016-08-04T10:04:32.251Z,25.09
2016-08-04T10:05:32.238Z,25.2
2016-08-04T10:06:32.249Z,25.27
2016-08-04T10:07:32.249Z,25.33
2016-08-04T10:08:32.263Z,25.37
2016-08-04T10:09:32.246Z,25.39
2016-08-04T10:10:32.290Z,25.38
2016-08-04T10:11:32.293Z,25.37
2016-08-04T10:12:32.275Z,25.41
2016-08-04T10:13:32.279Z,25.45
2016-08-04T10:14:32.279Z,25.37
2016-08-04T10:15:32.294Z,25.37
2016-08-04T10:16:32.295Z,25.19
2016-08-04T10:17:32.303Z,25.11
2016-08-04T10:18:32.317Z,24.97
2016-08-04T10:19:32.310Z,24.97
2016-08-04T10:20:32.323Z,24.92
2016-08-04T10:21:32.300Z,24.97
2016-08-04T10:22:32.322Z,24.97
2016-08-04T10:23:32.335Z,25
2016-08-04T10:24:32.411Z,25.01
2016-08-04T10:25:32.317Z,25.01
2016-08-04T10:26:32.318Z,25.01
2016-08-04T10:27:32.331Z,25.14
2016-08-04T10:28:32.332Z,25.07
2016-08-04T10:29:32.333Z,25.15
2016-08-04T10:30:33.046Z,25.17
2016-08-04T10:31:32.338Z,25.09
2016-08-04T10:32:32.361Z,25.17
2016-08-04T10:33:32.350Z,25.22
2016-08-04T10:34:32.384Z,25.2
2016-08-04T10:35:32.402Z,25.24
2016-08-04T10:36:32.381Z,25.23
2016-08-04T10:37:32.367Z,25.17
2016-08-04T10:38:32.379Z,25.17
2016-08-04T10:39:32.384Z,25.26
2016-08-04T10:40:32.384Z,25.26
2016-08-04T10:41:32.569Z,25.3
2016-08-04T10:42:33.150Z,25.3
2016-08-04T10:43:32.412Z,25.29
2016-08-04T10:44:32.404Z,25.33
2016-08-04T10:45:32.398Z,25.54
2016-08-04T10:46:32.404Z,25.71
2016-08-04T10:47:32.413Z,25.69
2016-08-04T10:48:32.408Z,25.81
2016-08-04T10:49:32.408Z,25.81
2016-08-04T10:50:32.425Z,25.69
2016-08-04T10:51:32.418Z,25.62
2016-08-04T10:52:32.434Z,25.66
2016-08-04T10:53:32.419Z,25.6
2016-08-04T10:54:33.039Z,25.52
2016-08-04T10:55:32.431Z,25.48
2016-08-04T10:56:32.466Z,25.48
2016-08-04T10:57:32.452Z,25.41
2016-08-04T10:58:32.462Z,25.49
2016-08-04T10:59:32.530Z,25.45
2016-08-04T11:00:32.473Z,25.34
2016-08-04T11:01:32.465Z,25.22
2016-08-04T11:02:32.486Z,25.24
2016-08-04T11:03:32.473Z,25.32
2016-08-04T11:04:32.500Z,25.27
2016-08-04T11:05:32.485Z,25.27
2016-08-04T11:06:32.498Z,25.23
2016-08-04T11:07:32.497Z,25.14
2016-08-04T11:08:32.501Z,25.2
2016-08-04T11:09:32.512Z,25.29
2016-08-04T11:10:32.512Z,25.22
2016-08-04T11:11:32.538Z,25.41
2016-08-04T11:12:32.542Z,25.38
2016-08-04T11:13:32.548Z,25.34
2016-08-04T11:14:32.512Z,25.39
2016-08-04T11:15:32.520Z,25.33
2016-08-04T11:16:32.518Z,25.42
2016-08-04T11:17:32.536Z,25.52
2016-08-04T11:18:32.518Z,25.45
2016-08-04T11:19:32.571Z,25.47
2016-08-04T11:20:32.541Z,25.49
2016-08-04T11:21:32.529Z,25.45
2016-08-04T11:22:32.584Z,25.47
2016-08-04T11:23:32.545Z,25.59
2016-08-04T11:24:32.571Z,25.59
2016-08-04T11:25:32.543Z,25.44
2016-08-04T11:26:32.557Z,25.47
2016-08-04T11:27:32.577Z,25.37
2016-08-04T11:28:32.568Z,25.47
2016-08-04T11:29:32.575Z,25.51
2016-08-04T11:30:32.572Z,25.52
2016-08-04T11:31:32.575Z,25.62
2016-08-04T11:32:32.594Z,25.59
2016-08-04T11:33:32.587Z,25.48
2016-08-04T11:34:32.590Z,25.54
2016-08-04T11:35:32.600Z,25.47
2016-08-04T11:36:32.603Z,25.52
2016-08-04T11:37:32.653Z,25.67
2016-08-04T11:38:32.611Z,25.64
2016-08-04T11:39:32.626Z,25.7
2016-08-04T11:40:32.619Z,25.66
2016-08-04T11:41:32.628Z,25.78
2016-08-04T11:42:32.636Z,25.74
2016-08-04T11:43:32.629Z,25.78
2016-08-04T11:44:32.897Z,25.84
2016-08-04T11:45:32.648Z,25.81
2016-08-04T11:46:32.654Z,25.84
2016-08-04T11:47:32.652Z,25.88
2016-08-04T11:48:32.655Z,25.85
2016-08-04T11:49:32.662Z,25.76
2016-08-04T11:50:32.666Z,25.7
2016-08-04T11:51:32.676Z,25.69
2016-08-04T11:52:32.701Z,25.57
2016-08-04T11:53:32.682Z,25.54
2016-08-04T11:54:32.707Z,25.49
2016-08-04T11:55:32.690Z,25.54
2016-08-04T11:56:32.687Z,25.47
2016-08-04T11:57:32.697Z,25.47
2016-08-04T11:58:32.693Z,25.48
2016-08-04T11:59:32.785Z,25.42
2016-08-04T12:00:32.713Z,25.32
2016-08-04T12:01:32.707Z,25.37
2016-08-04T12:02:32.714Z,25.38
2016-08-04T12:03:32.711Z,25.38
2016-08-04T12:04:32.719Z,25.33
2016-08-04T12:05:32.741Z,25.44
2016-08-04T12:06:32.728Z,25.57
2016-08-04T12:07:32.780Z,25.47
2016-08-04T12:08:32.737Z,25.54
2016-08-04T12:09:32.737Z,25.51
2016-08-04T12:10:32.753Z,25.45
2016-08-04T12:11:32.783Z,25.47
2016-08-04T12:12:32.765Z,25.49
2016-08-04T12:13:32.760Z,25.62
2016-08-04T12:14:32.776Z,25.62
2016-08-04T12:15:32.788Z,25.56
2016-08-04T12:16:32.763Z,25.51
2016-08-04T12:17:32.798Z,25.57
2016-08-04T12:18:32.779Z,25.6
2016-08-04T12:19:32.786Z,25.47
2016-08-04T12:20:32.876Z,25.54
2016-08-04T12:21:33.040Z,25.54
2016-08-04T12:22:32.862Z,25.42
2016-08-04T12:23:32.804Z,25.42
2016-08-04T12:24:32.814Z,25.45
2016-08-04T12:25:32.815Z,25.57
2016-08-04T12:26:32.821Z,25.6
2016-08-04T12:27:33.541Z,25.85
2016-08-04T12:28:32.822Z,25.74
2016-08-04T12:29:32.845Z,25.78
2016-08-04T12:30:32.835Z,25.91
2016-08-04T12:31:32.851Z,25.89
2016-08-04T12:32:32.842Z,25.88
2016-08-04T12:33:32.865Z,25.81
2016-08-04T12:34:32.848Z,25.82
2016-08-04T12:35:33.567Z,25.79
2016-08-04T12:36:32.867Z,25.7
2016-08-04T12:38:32.905Z,25.76
2016-08-04T12:39:32.884Z,25.75
2016-08-04T12:40:32.871Z,25.64
2016-08-04T12:41:32.956Z,25.69
2016-08-04T12:42:32.934Z,25.71
2016-08-04T12:43:32.890Z,25.71
2016-08-04T12:44:32.899Z,25.64
2016-08-04T12:45:32.899Z,25.78
2016-08-04T12:46:32.898Z,25.82
2016-08-04T12:47:32.909Z,25.79
2016-08-04T12:48:32.903Z,25.79
2016-08-04T12:49:32.919Z,25.88
2016-08-04T12:50:33.630Z,25.89
2016-08-04T12:51:32.927Z,25.79
2016-08-04T12:53:32.926Z,25.62
2016-08-04T12:54:32.940Z,25.59
2016-08-04T12:55:32.952Z,25.69
2016-08-04T12:56:32.946Z,25.71
2016-08-04T12:57:32.950Z,25.79
2016-08-04T12:58:32.956Z,25.78
2016-08-04T12:59:32.970Z,25.84
2016-08-04T13:00:32.967Z,25.71
2016-08-04T13:01:32.984Z,25.67
2016-08-04T13:02:32.998Z,25.69
2016-08-04T13:03:32.972Z,25.81
2016-08-04T13:04:32.990Z,25.78
2016-08-04T13:05:33.001Z,25.89
2016-08-04T13:06:32.997Z,25.97
2016-08-04T13:08:33.015Z,26.09